Details From LIEE - Cagliari Elmas
To LIEA - ALGHERO
Flight Number -
Tags None
Created
Modified
Stats Distance 92 nm / 170 km
Max Altitude 9,000 ft / 2,743 m
Waypoints 6
Social Downloads 8
Likes 0
Share

Download

Looking for another format? Having issues loading an existing format? Contact us
Advertisement - Login to hide

Notes

None

Route

LIEE DEC85 DEC47 RIKIM SODIO LIEA

ID Type Via Altitude (ft/m) Position (lat/lon) Dist (leg/tot) Name
O LIEE APT - 13 / 4 39.25147 / 9.05429 - / 0 nm Cagliari Elmas
DEC85 FIX - 3,000 / 914 39.34660 / 9.01225 6 / 6 nm
DEC47 FIX - 6,000 / 1,829 39.54440 / 8.92084 12 / 18 nm
RIKIM FIX - 9,000 / 2,743 39.70728 / 8.70700 13 / 32 nm
SODIO FIX - 4,000 / 1,219 40.27778 / 8.54194 35 / 67 nm
O LIEA APT - 87 / 27 40.63213 / 8.29077 24 / 91 nm ALGHERO

Altitude Profile

Advertisement - Login to hide

LIEE

Details ICAO LIEE (CAG)
Name Cagliari-Elmas "Mario Mameli"
Region Italy
Timezone Europe/Rome (UTC+1.0)
Stats Elevation 13 ft / 4 m (AMSL)
Location 39.251500° 9.054300°
Runways 1
Magnetic Variation 2.597° E

METAR

LIEE 270750Z 16013KT 9999 SCT015 18/16 Q1017

Decode

TAF

TAF AMD LIEE 270811Z 2708/2806 15015KT 9999 SCT030 TEMPO 2708/2712 15015G25KT TEMPO 2712/2724 15017G27KT SHRA TEMPO 2800/2806 15020G30KT TSRA

Decode

Departure Runways

ID Width Length Bearing (true/mag) Surface Threshold Overrun Markings Lighting
14 148 ft / 45 m 9,209 ft / 2,807 m 138.10° / 135.50° ASPHALT 0 ft / 0 m 0 ft / 0 m PREC-APP CENTERLINE EDGE THRESHOLD REIL-OMNI
32 148 ft / 45 m 9,209 ft / 2,807 m 318.11° / 315.52° ASPHALT 0 ft / 0 m 0 ft / 0 m PREC-APP CENTERLINE EDGE THRESHOLD ALSF-II REIL-OMNI

LIEA

Details ICAO LIEA (AHO)
Name Alghero-Fertilia "Riviera del Corallo"
Region Italy
Timezone Europe/Rome (UTC+1.0)
Stats Elevation 88 ft / 27 m (AMSL)
Location 40.632100° 8.290780°
Runways 1
Magnetic Variation 2.503° E

METAR

LIEA 270750Z 02006KT 9999 FEW030 12/10 Q1017

Decode

TAF

TAF LIEA 270500Z 2706/2806 06008KT 9999 SCT030 TEMPO 2715/2806 SHRA

Decode

Destination Runways

ID Width Length Bearing (true/mag) Surface Threshold Overrun Markings Lighting
02 148 ft / 45 m 9,852 ft / 3,003 m 24.50° / 22.00° ASPHALT 0 ft / 0 m 0 ft / 0 m PREC-APP CENTERLINE EDGE THRESHOLD MALSF REIL-OMNI
20 148 ft / 45 m 9,852 ft / 3,003 m 204.51° / 202.01° ASPHALT 0 ft / 0 m 0 ft / 0 m PREC-APP CENTERLINE EDGE THRESHOLD MALSF REIL-OMNI

Approach Navaids

Runway Type Ident Frequency Range Bearing (true/mag) Slope Elevation
20 MM MM - - 204.51° / 202.01 ° - 97 ft / 30 m (AMSL)
20 GS IALF 110.15 MHz 10 nm / 19 km 205.03° / 202.52 ° 3.00° 133 ft / 41 m (AMSL)
20 OM OM - - 204.51° / 202.01 ° - 202 ft / 62 m (AMSL)
20 DME IALF 110.15 MHz 25 nm / 46 km - - 133 ft / 41 m (AMSL)
20 LOC-ILS IALF 110.15 MHz 18 nm / 33 km 204.47° / 201.97 ° - 72 ft / 22 m (AMSL)

Popular Alternatives